createdAt,value
2018-05-14T00:01:54.115Z,119.03
2018-05-14T00:04:20.861Z,116.50
2018-05-14T00:06:47.581Z,124.40
2018-05-14T00:09:14.370Z,110.77
2018-05-14T00:11:41.198Z,129.33
2018-05-14T00:14:07.913Z,136.07
2018-05-14T00:16:34.617Z,126.67
2018-05-14T00:19:01.324Z,131.10
2018-05-14T00:21:28.038Z,121.83
2018-05-14T00:23:54.722Z,131.57
2018-05-14T00:26:21.426Z,130.97
2018-05-14T00:28:48.119Z,137.50
2018-05-14T00:31:14.812Z,142.70
2018-05-14T00:33:41.516Z,139.53
2018-05-14T00:36:08.341Z,151.87
2018-05-14T00:38:35.048Z,149.63
2018-05-14T00:41:01.740Z,133.77
2018-05-14T00:43:28.525Z,150.40
2018-05-14T00:45:55.208Z,141.50
2018-05-14T00:48:21.908Z,140.87
2018-05-14T00:50:48.632Z,153.23
2018-05-14T00:53:15.331Z,147.90
2018-05-14T00:55:42.131Z,141.00
2018-05-14T00:58:09.140Z,155.00
2018-05-14T01:00:35.837Z,159.20
2018-05-14T01:03:02.568Z,143.73
2018-05-14T01:05:29.276Z,147.07
2018-05-14T01:07:55.989Z,136.30
2018-05-14T01:10:22.672Z,134.93
2018-05-14T01:12:49.419Z,151.60
2018-05-14T01:15:16.101Z,158.07
2018-05-14T01:17:42.799Z,147.57
2018-05-14T01:20:09.561Z,153.03
2018-05-14T01:22:36.246Z,144.37
2018-05-14T01:25:03.012Z,150.73
2018-05-14T01:27:29.701Z,163.57
2018-05-14T01:29:56.399Z,130.50
2018-05-14T01:32:23.093Z,150.13
2018-05-14T01:34:49.931Z,145.17
2018-05-14T01:37:16.630Z,151.00
2018-05-14T01:39:43.548Z,159.13
2018-05-14T01:42:10.235Z,168.73
2018-05-14T01:44:36.934Z,144.83
2018-05-14T01:47:03.642Z,155.17
2018-05-14T01:49:30.320Z,154.80
2018-05-14T01:51:57.167Z,154.73
2018-05-14T01:54:24.048Z,149.37
2018-05-14T01:56:50.754Z,152.33
2018-05-14T01:59:17.468Z,164.20
2018-05-14T02:01:44.200Z,165.17
2018-05-14T02:04:10.931Z,150.73
2018-05-14T02:06:37.608Z,162.43
2018-05-14T02:09:04.321Z,152.30
2018-05-14T02:11:31.035Z,140.87
2018-05-14T02:13:57.900Z,134.77
2018-05-14T02:16:24.591Z,112.97
2018-05-14T02:18:51.293Z,115.60
2018-05-14T02:21:17.993Z,106.07
2018-05-14T02:23:44.703Z,104.20
2018-05-14T02:26:11.439Z,82.93
2018-05-14T02:28:38.144Z,88.27
2018-05-14T02:31:04.843Z,62.43
2018-05-14T02:33:31.528Z,76.93
2018-05-14T02:35:58.231Z,70.43
2018-05-14T02:38:24.912Z,67.07
2018-05-14T02:40:51.711Z,65.17
2018-05-14T02:43:18.412Z,72.23
2018-05-14T02:45:45.123Z,64.67
2018-05-14T02:48:11.805Z,62.90
2018-05-14T02:50:38.561Z,60.93
2018-05-14T02:53:05.251Z,60.03
2018-05-14T02:55:31.943Z,62.33
2018-05-14T02:57:58.655Z,57.47
2018-05-14T03:00:25.445Z,62.20
2018-05-14T03:02:52.136Z,72.27
2018-05-14T03:05:18.821Z,56.30
2018-05-14T03:07:45.525Z,65.20
2018-05-14T03:10:12.203Z,66.27
2018-05-14T03:12:38.920Z,72.50
2018-05-14T03:15:05.732Z,76.10
2018-05-14T03:17:32.417Z,100.43
2018-05-14T03:19:59.104Z,99.27
2018-05-14T03:22:25.831Z,111.70
2018-05-14T03:24:52.521Z,111.70
2018-05-14T03:27:19.307Z,112.03
2018-05-14T03:29:46.007Z,110.00
2018-05-14T03:32:12.716Z,109.20
2018-05-14T03:34:39.396Z,111.17
2018-05-14T03:37:06.103Z,101.40
2018-05-14T03:39:32.792Z,113.03
2018-05-14T03:41:59.516Z,108.67
2018-05-14T03:44:26.276Z,102.57
2018-05-14T03:46:53.081Z,109.57
2018-05-14T03:49:19.775Z,102.63
2018-05-14T03:51:46.523Z,115.47
2018-05-14T03:54:13.227Z,112.10
2018-05-14T03:56:39.898Z,116.40
2018-05-14T03:59:12.468Z,120.00
2018-05-14T04:01:45.050Z,109.10
2018-05-14T04:04:17.836Z,113.87
2018-05-14T04:06:44.523Z,106.67
2018-05-14T04:09:11.270Z,114.77
2018-05-14T04:11:37.942Z,112.23
2018-05-14T04:14:04.641Z,114.90
2018-05-14T04:16:31.381Z,112.73
2018-05-14T04:18:58.052Z,111.93
2018-05-14T04:21:24.849Z,115.50
2018-05-14T04:23:51.616Z,119.17
2018-05-14T04:26:18.324Z,121.33
2018-05-14T04:28:45.004Z,130.97
2018-05-14T04:31:11.744Z,123.43
2018-05-14T04:33:38.419Z,119.70
2018-05-14T04:36:05.152Z,129.83
2018-05-14T04:38:31.935Z,125.33
2018-05-14T04:40:58.663Z,118.23
2018-05-14T04:43:25.346Z,112.13
2018-05-14T04:45:52.040Z,125.23
2018-05-14T04:48:18.767Z,121.07
2018-05-14T04:50:45.640Z,113.10
2018-05-14T04:53:12.355Z,106.60
2018-05-14T04:55:39.036Z,104.63
2018-05-14T04:58:05.740Z,115.07
2018-05-14T05:00:33.293Z,115.70
2018-05-14T05:03:00.008Z,105.43
2018-05-14T05:05:26.774Z,121.70
2018-05-14T05:07:53.492Z,122.67
2018-05-14T05:10:20.323Z,109.73
2018-05-14T05:12:46.942Z,116.27
2018-05-14T05:15:13.677Z,110.67
2018-05-14T05:17:40.359Z,107.30
2018-05-14T05:20:07.080Z,111.70
2018-05-14T05:22:33.795Z,126.40
2018-05-14T05:25:00.647Z,110.73
2018-05-14T05:27:27.354Z,116.83
2018-05-14T05:29:54.202Z,110.27
2018-05-14T05:32:20.907Z,125.13
2018-05-14T05:34:47.617Z,116.23
2018-05-14T05:37:14.334Z,116.53
2018-05-14T05:39:41.032Z,112.93
2018-05-14T05:42:07.733Z,114.33
2018-05-14T05:44:34.444Z,111.07
2018-05-14T05:47:02.032Z,111.97
2018-05-14T05:49:29.588Z,123.77
2018-05-14T05:51:56.369Z,123.47
2018-05-14T05:54:23.225Z,106.53
2018-05-14T05:56:49.903Z,114.10
2018-05-14T05:59:16.628Z,109.77
2018-05-14T06:01:43.323Z,109.83
2018-05-14T06:04:10.064Z,106.70
2018-05-14T06:06:36.771Z,115.57
2018-05-14T06:09:03.459Z,100.97
2018-05-14T06:11:30.990Z,104.07
2018-05-14T06:13:57.659Z,98.47
2018-05-14T06:16:24.387Z,103.33
2018-05-14T06:18:51.276Z,104.80
2018-05-14T06:21:17.996Z,90.00
2018-05-14T06:23:45.713Z,99.90
2018-05-14T06:26:14.821Z,103.30
2018-05-14T06:28:41.663Z,95.60
2018-05-14T06:31:09.117Z,89.13
2018-05-14T06:33:35.791Z,78.00
2018-05-14T06:36:03.076Z,85.40
2018-05-14T06:38:30.455Z,87.50
2018-05-14T06:40:57.132Z,83.30
2018-05-14T06:43:23.844Z,79.50
2018-05-14T06:45:50.528Z,81.70
2018-05-14T06:48:17.272Z,73.10
2018-05-14T06:50:43.995Z,69.87
2018-05-14T06:53:11.669Z,67.23
2018-05-14T06:55:38.383Z,62.40
2018-05-14T06:58:08.012Z,64.60
2018-05-14T07:00:34.705Z,61.90
2018-05-14T07:03:01.452Z,59.03
2018-05-14T07:05:28.828Z,60.00
2018-05-14T07:07:56.329Z,60.30
2018-05-14T07:10:23.166Z,54.93
2018-05-14T07:12:51.539Z,65.00
2018-05-14T07:15:18.240Z,61.13
2018-05-14T07:17:46.294Z,68.90
2018-05-14T07:20:12.993Z,60.40
2018-05-14T07:22:39.691Z,68.07
2018-05-14T07:25:06.440Z,60.20
2018-05-14T07:27:33.201Z,58.17
2018-05-14T07:29:59.891Z,60.97
2018-05-14T07:32:26.628Z,60.90
2018-05-14T07:34:53.308Z,58.00
2018-05-14T07:37:20.222Z,58.90
2018-05-14T07:39:46.836Z,61.60
2018-05-14T07:42:13.533Z,56.20
2018-05-14T07:44:40.263Z,54.87
2018-05-14T07:47:06.944Z,54.57
2018-05-14T07:49:33.658Z,57.10
2018-05-14T07:52:00.330Z,55.43
2018-05-14T07:54:27.073Z,57.37
2018-05-14T07:56:53.751Z,56.10
2018-05-14T07:59:20.456Z,60.00
2018-05-14T08:01:47.321Z,58.33
2018-05-14T08:04:14.012Z,56.87
2018-05-14T08:06:40.717Z,57.07
2018-05-14T08:09:07.422Z,59.23
2018-05-14T08:11:34.126Z,59.77
2018-05-14T08:14:00.819Z,55.90
2018-05-14T08:16:27.520Z,57.77
2018-05-14T08:18:54.202Z,57.27
2018-05-14T08:21:20.916Z,58.90
2018-05-14T08:23:47.590Z,55.07
2018-05-14T08:26:14.305Z,57.03
2018-05-14T08:28:41.078Z,56.87
2018-05-14T08:31:07.867Z,53.37
2018-05-14T08:33:34.561Z,55.63
2018-05-14T08:36:01.264Z,55.53
2018-05-14T08:38:27.959Z,56.67
2018-05-14T08:40:54.652Z,56.20
2018-05-14T08:43:21.351Z,56.33
2018-05-14T08:45:48.047Z,57.43
2018-05-14T08:48:14.887Z,56.83
2018-05-14T08:50:41.598Z,55.90
2018-05-14T08:53:08.279Z,58.27
2018-05-14T08:55:34.985Z,54.50
2018-05-14T08:58:01.665Z,57.20
2018-05-14T09:00:28.343Z,57.13
2018-05-14T09:02:55.105Z,59.07
2018-05-14T09:05:21.804Z,56.73
2018-05-14T09:07:48.540Z,55.83
2018-05-14T09:10:15.243Z,56.30
2018-05-14T09:12:41.928Z,55.03
2018-05-14T09:15:08.630Z,55.13
2018-05-14T09:17:35.513Z,56.67
2018-05-14T09:20:02.204Z,53.93
2018-05-14T09:22:28.895Z,53.10
2018-05-14T09:24:55.604Z,52.93
2018-05-14T09:27:22.307Z,52.63
2018-05-14T09:29:48.994Z,51.47
2018-05-14T09:32:15.808Z,50.70
2018-05-14T09:34:42.559Z,51.17
2018-05-14T09:37:09.481Z,50.07
2018-05-14T09:39:36.145Z,48.70
2018-05-14T09:42:02.852Z,45.77
2018-05-14T09:44:29.633Z,43.30
2018-05-14T09:46:56.255Z,39.77
2018-05-14T09:49:22.956Z,40.33
2018-05-14T09:51:49.692Z,42.10
2018-05-14T09:54:16.435Z,38.43
2018-05-14T09:56:43.107Z,38.40
2018-05-14T09:59:09.843Z,37.83
2018-05-14T10:01:36.555Z,35.23
2018-05-14T10:04:03.386Z,35.77
2018-05-14T10:06:30.075Z,38.10
2018-05-14T10:08:56.763Z,35.20
2018-05-14T10:11:23.463Z,35.27
2018-05-14T10:13:50.164Z,33.57
2018-05-14T10:16:16.886Z,34.17
2018-05-14T10:18:43.705Z,34.23
2018-05-14T10:21:10.383Z,34.13
2018-05-14T10:23:37.080Z,32.63
2018-05-14T10:26:03.823Z,34.07
2018-05-14T10:28:30.508Z,34.23
2018-05-14T10:30:57.229Z,35.77
2018-05-14T10:33:24.102Z,33.40
2018-05-14T10:35:50.827Z,34.80
2018-05-14T10:38:17.583Z,34.40
2018-05-14T10:40:44.319Z,33.30
2018-05-14T10:43:10.973Z,34.23
2018-05-14T10:45:37.672Z,36.20
2018-05-14T10:48:04.764Z,33.80
2018-05-14T10:50:31.547Z,33.43
2018-05-14T10:52:58.356Z,32.77
2018-05-14T10:55:25.050Z,33.50
2018-05-14T10:57:51.863Z,31.23
2018-05-14T11:00:18.644Z,30.47
2018-05-14T11:02:45.328Z,32.00
2018-05-14T11:05:12.059Z,29.40
2018-05-14T11:07:38.750Z,28.80
2018-05-14T11:10:05.465Z,26.70
2018-05-14T11:12:32.164Z,26.20
2018-05-14T11:14:58.930Z,24.20
2018-05-14T11:17:25.607Z,20.20
2018-05-14T11:19:52.294Z,21.87
2018-05-14T11:22:19.012Z,24.30
2018-05-14T11:24:45.759Z,24.60
2018-05-14T11:27:12.457Z,20.20
2018-05-14T11:29:39.139Z,21.47
2018-05-14T11:32:05.876Z,26.20
2018-05-14T11:34:32.658Z,25.00
2018-05-14T11:36:59.359Z,20.90
2018-05-14T11:39:26.052Z,18.50
2018-05-14T11:41:52.759Z,17.53
2018-05-14T11:44:19.463Z,17.50
2018-05-14T11:46:46.211Z,16.97
2018-05-14T11:49:12.919Z,17.60
2018-05-14T11:51:39.619Z,15.87
2018-05-14T11:54:06.368Z,17.03
2018-05-14T11:56:33.051Z,17.07
2018-05-14T11:58:59.947Z,15.93
2018-05-14T12:01:26.640Z,17.60
2018-05-14T12:03:53.340Z,16.90
2018-05-14T12:06:20.053Z,16.07
2018-05-14T12:08:46.848Z,15.63
2018-05-14T12:11:13.553Z,16.00
2018-05-14T12:13:40.245Z,15.47
2018-05-14T12:16:06.977Z,15.83
2018-05-14T12:18:33.639Z,17.80
2018-05-14T12:21:00.385Z,14.17
2018-05-14T12:23:27.084Z,13.37
2018-05-14T12:25:53.800Z,13.00
2018-05-14T12:28:20.515Z,13.10
2018-05-14T12:30:47.214Z,13.13
2018-05-14T12:33:13.915Z,12.83
2018-05-14T12:35:40.630Z,12.93
2018-05-14T12:38:07.336Z,12.13
2018-05-14T12:40:34.115Z,12.53
2018-05-14T12:43:00.820Z,13.30
2018-05-14T12:45:27.503Z,12.20
2018-05-14T12:47:54.212Z,12.30
2018-05-14T12:50:20.887Z,14.40
2018-05-14T12:52:47.656Z,13.97
2018-05-14T12:55:14.340Z,13.60
2018-05-14T12:57:41.031Z,14.53
2018-05-14T13:00:07.748Z,12.90
2018-05-14T13:02:34.427Z,12.40
2018-05-14T13:05:01.116Z,13.43
2018-05-14T13:07:27.868Z,14.37
2018-05-14T13:09:54.556Z,13.93
2018-05-14T13:12:21.532Z,12.50
2018-05-14T13:14:48.229Z,11.40
2018-05-14T13:17:15.009Z,10.47
2018-05-14T13:19:41.697Z,10.33
2018-05-14T13:22:08.484Z,9.40
2018-05-14T13:24:35.155Z,10.80
2018-05-14T13:27:01.867Z,10.20
2018-05-14T13:29:28.546Z,9.20
2018-05-14T13:31:55.263Z,12.20
2018-05-14T13:34:21.936Z,10.93
2018-05-14T13:36:48.634Z,8.70
2018-05-14T13:39:15.320Z,8.43
2018-05-14T13:41:42.065Z,12.33
2018-05-14T13:44:08.929Z,9.33
2018-05-14T13:46:35.680Z,6.67
2018-05-14T13:49:02.357Z,7.63
2018-05-14T13:51:29.032Z,8.67
2018-05-14T13:53:55.775Z,6.50
2018-05-14T13:56:22.471Z,7.37
2018-05-14T13:58:49.185Z,10.70
2018-05-14T14:01:15.884Z,6.53
2018-05-14T14:03:42.604Z,7.80
2018-05-14T14:06:09.300Z,6.73
2018-05-14T14:08:36.103Z,7.40
2018-05-14T14:11:02.807Z,11.43
2018-05-14T14:13:29.508Z,8.20
2018-05-14T14:15:56.186Z,6.20
2018-05-14T14:18:22.889Z,5.93
2018-05-14T14:20:49.611Z,5.40
2018-05-14T14:23:16.325Z,6.57
2018-05-14T14:25:42.999Z,6.47
2018-05-14T14:28:09.680Z,6.40
2018-05-14T14:30:36.394Z,5.93
2018-05-14T14:33:03.191Z,7.13
2018-05-14T14:35:29.899Z,5.93
2018-05-14T14:37:59.324Z,5.77
2018-05-14T14:40:27.686Z,5.77
2018-05-14T14:42:55.191Z,5.53
2018-05-14T14:45:22.700Z,5.67
2018-05-14T14:47:49.407Z,4.63
2018-05-14T14:50:16.103Z,5.27
2018-05-14T14:52:42.780Z,11.50
2018-05-14T14:55:10.147Z,7.20
2018-05-14T14:57:37.799Z,5.40
2018-05-14T15:00:04.502Z,5.47
2018-05-14T15:02:32.044Z,8.80
2018-05-14T15:04:59.267Z,6.00
2018-05-14T15:07:25.939Z,8.50
2018-05-14T15:09:52.697Z,5.57
2018-05-14T15:12:20.894Z,4.60
2018-05-14T15:14:51.449Z,6.57
2018-05-14T15:17:20.751Z,5.50
2018-05-14T15:19:48.132Z,7.10
2018-05-14T15:22:16.006Z,5.90
2018-05-14T15:24:43.474Z,5.40
2018-05-14T15:27:10.454Z,8.23
2018-05-14T15:29:37.994Z,6.40
2018-05-14T15:32:05.461Z,6.80
2018-05-14T15:34:32.151Z,10.20
2018-05-14T15:37:01.068Z,5.83
2018-05-14T15:39:27.754Z,5.80
2018-05-14T15:41:55.767Z,6.43
2018-05-14T15:44:23.125Z,8.13
2018-05-14T15:46:51.840Z,6.80
2018-05-14T15:49:18.544Z,4.80
2018-05-14T15:51:46.395Z,5.53
2018-05-14T15:54:16.145Z,8.23
2018-05-14T15:56:42.846Z,8.10
2018-05-14T15:59:09.578Z,5.63
2018-05-14T16:01:36.991Z,4.00
2018-05-14T16:04:06.112Z,5.37
2018-05-14T16:06:36.969Z,4.33
2018-05-14T16:09:04.451Z,3.67
2018-05-14T16:11:31.668Z,5.53
2018-05-14T16:13:58.335Z,4.83
2018-05-14T16:16:26.633Z,6.33
2018-05-14T16:18:54.035Z,6.47
2018-05-14T16:21:21.944Z,4.50
2018-05-14T16:23:48.832Z,4.97
2018-05-14T16:26:15.572Z,6.50
2018-05-14T16:28:42.362Z,5.70
2018-05-14T16:31:10.561Z,4.50
2018-05-14T16:33:37.992Z,4.60
2018-05-14T16:36:04.666Z,4.77
2018-05-14T16:38:32.713Z,5.30
2018-05-14T16:40:59.413Z,6.03
2018-05-14T16:43:26.130Z,6.67
2018-05-14T16:45:53.739Z,6.17
2018-05-14T16:48:20.439Z,6.70
2018-05-14T16:50:47.159Z,5.60
2018-05-14T16:53:15.260Z,4.93
2018-05-14T16:55:42.046Z,6.83
2018-05-14T16:58:08.743Z,4.70
2018-05-14T17:00:36.229Z,6.17
2018-05-14T17:03:03.900Z,7.50
2018-05-14T17:08:03.907Z,5.17
2018-05-14T17:10:30.621Z,6.63
2018-05-14T17:12:59.437Z,6.70
2018-05-14T17:15:27.399Z,4.90
2018-05-14T17:17:55.036Z,5.27
2018-05-14T17:22:54.251Z,5.13
2018-05-14T17:25:20.961Z,7.80
2018-05-14T17:27:47.698Z,7.90
2018-05-14T17:30:14.556Z,5.07
2018-05-14T17:32:41.260Z,5.57
2018-05-14T17:35:07.965Z,7.10
2018-05-14T17:37:35.401Z,5.57
2018-05-14T17:40:02.117Z,4.47
2018-05-14T17:42:28.820Z,4.90
2018-05-14T17:44:55.507Z,7.20
2018-05-14T17:47:25.384Z,5.27
2018-05-14T17:49:53.926Z,4.90
2018-05-14T17:52:23.656Z,4.70
2018-05-14T17:54:50.415Z,6.73
2018-05-14T17:57:17.139Z,5.30
2018-05-14T17:59:44.495Z,5.63
2018-05-14T18:02:12.644Z,5.00
2018-05-14T18:04:41.357Z,7.37
2018-05-14T18:07:09.302Z,5.07
2018-05-14T18:09:36.087Z,5.63
2018-05-14T18:12:03.746Z,4.57
2018-05-14T18:14:30.453Z,5.50
2018-05-14T18:16:58.822Z,5.17
2018-05-14T18:19:29.395Z,4.90
2018-05-14T18:22:15.755Z,6.47
2018-05-14T18:24:49.067Z,5.53
2018-05-14T18:27:23.265Z,5.33
2018-05-14T18:29:54.975Z,4.77
2018-05-14T18:32:23.535Z,4.77
2018-05-14T18:34:58.628Z,5.27
2018-05-14T18:37:26.567Z,4.60
2018-05-14T18:39:54.225Z,4.70
2018-05-14T18:42:22.026Z,4.80
2018-05-14T18:44:49.960Z,3.93
2018-05-14T18:47:20.329Z,5.00
2018-05-14T18:49:47.594Z,4.77
2018-05-14T18:52:15.230Z,6.10
2018-05-14T18:54:43.951Z,8.47
2018-05-14T18:57:11.493Z,6.47
2018-05-14T18:59:40.335Z,5.23
2018-05-14T19:02:11.461Z,5.90
2018-05-14T19:04:39.259Z,4.63
2018-05-14T19:07:05.868Z,6.07
2018-05-14T19:09:32.581Z,4.77
2018-05-14T19:12:00.189Z,9.27
2018-05-14T19:14:27.447Z,5.50
2018-05-14T19:16:59.882Z,5.10
2018-05-14T19:19:28.635Z,6.00
2018-05-14T19:21:55.438Z,8.87
2018-05-14T19:24:22.950Z,9.23
2018-05-14T19:26:49.773Z,7.90
2018-05-14T19:29:23.048Z,5.67
2018-05-14T19:31:49.746Z,9.00
2018-05-14T19:34:22.244Z,7.87
2018-05-14T19:36:49.908Z,5.50
2018-05-14T19:39:22.153Z,7.37
2018-05-14T19:41:48.863Z,20.00
2018-05-14T19:44:16.420Z,7.10
2018-05-14T19:46:43.125Z,6.27
2018-05-14T19:49:09.891Z,6.30
2018-05-14T19:51:36.520Z,5.73
2018-05-14T19:54:03.252Z,6.23
2018-05-14T19:56:31.449Z,7.23
2018-05-14T19:58:58.304Z,6.60
2018-05-14T20:01:25.642Z,6.20
2018-05-14T20:03:53.279Z,6.40
2018-05-14T20:06:19.997Z,6.40
2018-05-14T20:08:46.720Z,5.73
2018-05-14T20:11:13.493Z,6.40
2018-05-14T20:13:40.191Z,9.37
2018-05-14T20:16:06.890Z,6.33
2018-05-14T20:18:33.593Z,6.80
2018-05-14T20:21:00.399Z,6.77
2018-05-14T20:23:27.133Z,6.37
2018-05-14T20:25:54.083Z,6.60
2018-05-14T20:28:20.863Z,6.60
2018-05-14T20:30:47.567Z,6.47
2018-05-14T20:33:14.773Z,7.30
2018-05-14T20:35:42.108Z,10.37
2018-05-14T20:38:08.867Z,8.03
2018-05-14T20:40:35.520Z,6.00
2018-05-14T20:43:03.425Z,5.27
2018-05-14T20:45:31.111Z,9.00
2018-05-14T20:47:57.900Z,8.50
2018-05-14T20:50:25.670Z,7.73
2018-05-14T20:52:53.384Z,7.30
2018-05-14T20:55:21.094Z,12.07
2018-05-14T20:57:48.681Z,6.80
2018-05-14T21:00:15.419Z,6.97
2018-05-14T21:02:43.078Z,6.80
2018-05-14T21:05:13.713Z,8.37
2018-05-14T21:07:41.249Z,7.20
2018-05-14T21:10:07.941Z,8.33
2018-05-14T21:12:36.389Z,8.70
2018-05-14T21:15:03.090Z,8.33
2018-05-14T21:17:31.066Z,7.70
2018-05-14T21:19:58.468Z,7.30
2018-05-14T21:22:26.063Z,8.03
2018-05-14T21:24:52.757Z,8.17
2018-05-14T21:27:19.445Z,6.63
2018-05-14T21:29:46.161Z,8.83
2018-05-14T21:32:13.001Z,9.13
2018-05-14T21:34:39.837Z,7.73
2018-05-14T21:37:06.524Z,8.20
2018-05-14T21:39:33.236Z,8.43
2018-05-14T21:41:59.958Z,7.57
2018-05-14T21:44:26.652Z,8.13
2018-05-14T21:46:53.494Z,8.30
2018-05-14T21:49:20.380Z,8.20
2018-05-14T21:51:47.056Z,7.70
2018-05-14T21:54:13.749Z,8.77
2018-05-14T21:56:40.448Z,7.73
2018-05-14T21:59:07.139Z,7.60
2018-05-14T22:01:33.850Z,8.23
2018-05-14T22:04:00.575Z,9.30
2018-05-14T22:06:27.308Z,8.37
2018-05-14T22:08:54.040Z,7.53
2018-05-14T22:11:20.866Z,8.00
2018-05-14T22:13:47.573Z,8.10
2018-05-14T22:16:14.234Z,7.90
2018-05-14T22:18:40.969Z,12.10
2018-05-14T22:21:07.653Z,8.30
2018-05-14T22:23:34.393Z,7.70
2018-05-14T22:26:01.263Z,8.67
2018-05-14T22:28:28.004Z,11.93
2018-05-14T22:30:54.790Z,7.23
2018-05-14T22:33:21.468Z,8.07
2018-05-14T22:35:48.160Z,8.40
2018-05-14T22:38:14.862Z,7.67
2018-05-14T22:40:41.567Z,9.40
2018-05-14T22:43:08.257Z,8.20
2018-05-14T22:45:35.092Z,7.13
2018-05-14T22:48:01.954Z,8.53
2018-05-14T22:50:28.685Z,10.83
2018-05-14T22:52:55.369Z,9.13
2018-05-14T22:55:22.073Z,9.33
2018-05-14T22:57:48.772Z,7.80
2018-05-14T23:00:16.112Z,8.60
2018-05-14T23:02:42.829Z,7.70
2018-05-14T23:05:09.549Z,8.13
2018-05-14T23:07:36.256Z,12.20
2018-05-14T23:10:02.950Z,9.30
2018-05-14T23:12:29.814Z,8.50
2018-05-14T23:14:56.483Z,8.40
2018-05-14T23:17:23.203Z,8.63
2018-05-14T23:19:49.952Z,9.33
2018-05-14T23:22:16.624Z,10.07
2018-05-14T23:24:43.328Z,11.73
2018-05-14T23:27:10.044Z,9.10
2018-05-14T23:29:36.738Z,9.27
2018-05-14T23:32:03.459Z,8.57
2018-05-14T23:34:30.283Z,11.17
2018-05-14T23:36:57.006Z,9.93
2018-05-14T23:39:23.880Z,9.30
2018-05-14T23:41:50.575Z,8.50
2018-05-14T23:44:17.250Z,11.30
2018-05-14T23:46:43.972Z,9.00
2018-05-14T23:49:10.664Z,9.43
2018-05-14T23:51:37.346Z,9.80
2018-05-14T23:54:04.095Z,11.53
2018-05-14T23:56:30.783Z,9.97
2018-05-14T23:58:57.463Z,8.43
